Página principal
METAR-TAF:

METAR-TAF

Aeroportos :

Aeroporto Internacional Tolmachevo

Novosibirsk, Rússia

latitude: 55-01N, longitude: 082-38E, altura: 111 m

Observação actual do tempo

O boletim foi feito há 34 minutos, às 07:00 UTC
Vento calmo
Temperatura -19°C
Humidade 77%
Pressão 1031 hPa
Visibilidade: 5000 m
neblina

METAR: UNNT 100700Z 00000MPS 5000 BR NSC M19/M22 Q1031 R25/810160 R16/810160 NOSIG RMK QFE763/1018

Hora: 14:34 (07:34 UTC)

Previsão

O boletim foi feito há 2 horas e 34 minutos, às 05:00 UTC
Previsão válida de 10 às 06 UTC a 11 às 06 UTC
Vento 6 kt de su-sudeste
Visibilidade: 5000 m
neblina
Temporariamente
de 10 às 15 UTC a 11 às 04 UTC
Visibilidade: 1500 m
fumo, neblina

TAF: UNNT 100500Z 1006/1106 16003MPS 5000 BR NSC TEMPO 1015/1104 1500 FU BR

Observações e previsões do tempo de mais de 4000 aeroportos (mensagens METAR e TAF).

As estações disponíveis são os pontos amarelos e vermelhos sobre o mapa.

Mova o rato sobre o mapa para ver o nome da estação.

Depois clique no ponto para visualizar as observações e previsões meteorológicas.

Para alterar o mapa : clique nos botões verdes com uma cruz preta para aumentar o zoom; no botão verde com uma pitada de zoom; ou nas setas verdes para mapas adjacentes.


METAR-TAF: